createdAt,value
2017-11-20T00:01:08.386Z,5.10
2017-11-20T00:03:36.200Z,5.00
2017-11-20T00:06:03.650Z,5.00
2017-11-20T00:08:31.065Z,5.00
2017-11-20T00:10:58.493Z,5.00
2017-11-20T00:13:27.563Z,5.00
2017-11-20T00:15:54.978Z,4.90
2017-11-20T00:18:22.402Z,4.90
2017-11-20T00:20:50.241Z,5.00
2017-11-20T00:23:17.667Z,5.00
2017-11-20T00:25:45.313Z,4.90
2017-11-20T00:28:12.741Z,4.90
2017-11-20T00:30:40.828Z,4.90
2017-11-20T00:33:08.795Z,4.90
2017-11-20T00:35:36.552Z,4.90
2017-11-20T00:38:03.986Z,4.90
2017-11-20T00:40:31.396Z,4.90
2017-11-20T00:42:58.839Z,4.90
2017-11-20T00:45:26.269Z,4.80
2017-11-20T00:47:53.690Z,4.80
2017-11-20T00:50:21.139Z,4.80
2017-11-20T00:52:48.567Z,4.80
2017-11-20T00:55:15.986Z,4.70
2017-11-20T00:57:43.781Z,4.80
2017-11-20T01:00:11.204Z,4.80
2017-11-20T01:02:38.625Z,4.80
2017-11-20T01:05:06.058Z,4.70
2017-11-20T01:07:33.482Z,4.70
2017-11-20T01:10:00.905Z,4.70
2017-11-20T01:12:28.918Z,4.90
2017-11-20T01:14:56.340Z,4.90
2017-11-20T01:17:23.765Z,4.80
2017-11-20T01:19:51.217Z,4.80
2017-11-20T01:22:18.642Z,5.00
2017-11-20T01:24:46.080Z,5.20
2017-11-20T01:27:13.505Z,5.10
2017-11-20T01:29:41.318Z,5.00
2017-11-20T01:32:08.743Z,5.00
2017-11-20T01:34:36.200Z,5.10
2017-11-20T01:37:03.621Z,5.10
2017-11-20T01:39:31.037Z,5.20
2017-11-20T01:41:58.574Z,5.20
2017-11-20T01:44:25.986Z,5.30
2017-11-20T01:46:53.800Z,5.40
2017-11-20T01:49:21.272Z,5.40
2017-11-20T01:51:48.682Z,5.50
2017-11-20T01:54:16.505Z,5.50
2017-11-20T01:56:43.960Z,5.50
2017-11-20T01:59:11.394Z,5.60
2017-11-20T02:01:38.836Z,5.70
2017-11-20T02:04:06.268Z,5.70
2017-11-20T02:06:33.698Z,5.70
2017-11-20T02:09:01.113Z,5.80
2017-11-20T02:11:28.570Z,5.90
2017-11-20T02:13:56.000Z,5.90
2017-11-20T02:16:23.424Z,5.80
2017-11-20T02:18:51.547Z,5.90
2017-11-20T02:21:18.965Z,5.90
2017-11-20T02:23:46.390Z,5.90
2017-11-20T02:26:13.832Z,5.80
2017-11-20T02:28:41.251Z,5.70
2017-11-20T02:31:08.676Z,5.70
2017-11-20T02:33:36.777Z,5.60
2017-11-20T02:36:04.194Z,5.60
2017-11-20T02:38:32.018Z,5.50
2017-11-20T02:40:59.437Z,5.50
2017-11-20T02:43:26.886Z,5.40
2017-11-20T02:45:54.306Z,5.40
2017-11-20T02:48:21.727Z,5.30
2017-11-20T02:50:49.165Z,5.20
2017-11-20T02:53:16.594Z,5.20
2017-11-20T02:55:44.051Z,5.10
2017-11-20T02:58:11.849Z,5.10
2017-11-20T03:00:39.265Z,5.10
2017-11-20T03:03:06.681Z,5.00
2017-11-20T03:05:34.138Z,5.00
2017-11-20T03:08:01.566Z,4.90
2017-11-20T03:10:29.001Z,4.80
2017-11-20T03:12:56.442Z,4.80
2017-11-20T03:15:23.869Z,4.80
2017-11-20T03:17:51.685Z,4.60
2017-11-20T03:20:19.133Z,4.60
2017-11-20T03:22:46.562Z,4.60
2017-11-20T03:25:14.372Z,4.60
2017-11-20T03:27:42.128Z,4.60
2017-11-20T03:30:09.584Z,4.50
2017-11-20T03:32:36.995Z,4.50
2017-11-20T03:35:04.821Z,4.60
2017-11-20T03:37:32.252Z,4.50
2017-11-20T03:39:59.683Z,4.60
2017-11-20T03:42:27.105Z,4.70
2017-11-20T03:44:54.530Z,4.70
2017-11-20T03:47:21.963Z,4.70
2017-11-20T03:49:50.553Z,4.70
2017-11-20T03:52:17.978Z,4.80
2017-11-20T03:54:45.402Z,4.70
2017-11-20T03:57:13.055Z,4.60
2017-11-20T03:59:40.478Z,4.60
2017-11-20T04:02:07.906Z,4.60
2017-11-20T04:04:35.698Z,4.60
2017-11-20T04:07:03.124Z,4.60
2017-11-20T04:09:30.549Z,4.70
2017-11-20T04:11:58.377Z,4.70
2017-11-20T04:14:25.797Z,4.70
2017-11-20T04:16:53.229Z,4.70
2017-11-20T04:19:21.049Z,4.70
2017-11-20T04:21:48.485Z,4.70
2017-11-20T04:24:16.152Z,4.70
2017-11-20T04:26:43.583Z,4.60
2017-11-20T04:29:11.000Z,4.60
2017-11-20T04:31:38.461Z,4.60
2017-11-20T04:34:06.291Z,4.60
2017-11-20T04:36:33.714Z,4.60
2017-11-20T04:39:01.146Z,4.60
2017-11-20T04:41:28.974Z,4.60
2017-11-20T04:43:56.400Z,4.60
2017-11-20T04:46:23.940Z,4.60
2017-11-20T04:48:54.509Z,4.50
2017-11-20T04:51:21.941Z,4.50
2017-11-20T04:53:49.392Z,4.50
2017-11-20T04:56:16.814Z,4.50
2017-11-20T04:58:44.641Z,4.50
2017-11-20T05:01:12.098Z,4.50
2017-11-20T05:03:39.509Z,4.50
2017-11-20T05:06:06.937Z,4.50
2017-11-20T05:08:34.869Z,4.50
2017-11-20T05:11:02.298Z,4.50
2017-11-20T05:13:29.727Z,4.40
2017-11-20T05:15:57.254Z,4.40
2017-11-20T05:18:24.676Z,4.30
2017-11-20T05:20:52.101Z,4.20
2017-11-20T05:23:19.537Z,4.30
2017-11-20T05:25:47.361Z,4.20
2017-11-20T05:28:14.786Z,4.20
2017-11-20T05:30:42.216Z,4.20
2017-11-20T05:33:09.645Z,4.20
2017-11-20T05:35:37.088Z,4.20
2017-11-20T05:38:04.509Z,4.10
2017-11-20T05:40:31.931Z,4.10
2017-11-20T05:43:00.032Z,4.10
2017-11-20T05:45:27.453Z,4.10
2017-11-20T05:47:54.873Z,4.20
2017-11-20T05:50:22.325Z,4.20
2017-11-20T05:52:49.746Z,4.20
2017-11-20T05:55:17.176Z,4.30
2017-11-20T05:57:45.010Z,4.40
2017-11-20T06:00:12.423Z,4.40
2017-11-20T06:02:39.878Z,4.40
2017-11-20T06:05:07.306Z,4.30
2017-11-20T06:07:34.736Z,4.40
2017-11-20T06:10:03.386Z,4.40
2017-11-20T06:12:30.805Z,4.40
2017-11-20T06:14:58.241Z,4.50
2017-11-20T06:17:26.075Z,4.50
2017-11-20T06:19:53.500Z,4.50
2017-11-20T06:22:20.930Z,4.60
2017-11-20T06:24:48.387Z,4.50
2017-11-20T06:27:15.834Z,4.50
2017-11-20T06:29:43.635Z,4.60
2017-11-20T06:32:11.169Z,4.60
2017-11-20T06:34:38.621Z,4.60
2017-11-20T06:37:06.044Z,4.50
2017-11-20T06:39:33.506Z,4.50
2017-11-20T06:42:00.917Z,4.50
2017-11-20T06:44:28.341Z,4.50
2017-11-20T06:46:55.789Z,4.50
2017-11-20T06:49:23.211Z,4.50
2017-11-20T06:51:50.630Z,4.50
2017-11-20T06:54:18.102Z,4.50
2017-11-20T06:56:45.489Z,4.50
2017-11-20T06:59:13.426Z,4.50
2017-11-20T07:01:40.850Z,4.50
2017-11-20T07:04:08.285Z,4.50
2017-11-20T07:06:35.728Z,4.50
2017-11-20T07:09:03.160Z,4.50
2017-11-20T07:11:30.580Z,4.50
2017-11-20T07:13:58.346Z,4.50
2017-11-20T07:16:25.773Z,4.50
2017-11-20T07:18:53.207Z,4.50
2017-11-20T07:21:21.296Z,4.60
2017-11-20T07:23:48.726Z,4.60
2017-11-20T07:26:30.358Z,4.60
2017-11-20T07:29:09.554Z,4.60
2017-11-20T07:31:37.006Z,4.60
2017-11-20T07:34:16.205Z,4.70
2017-11-20T07:36:55.569Z,4.70
2017-11-20T07:39:31.261Z,4.80
2017-11-20T07:41:58.702Z,4.80
2017-11-20T07:44:26.118Z,4.70
2017-11-20T07:46:53.939Z,4.80
2017-11-20T07:49:21.477Z,4.80
2017-11-20T07:51:48.892Z,4.80
2017-11-20T07:54:16.711Z,4.90
2017-11-20T07:56:44.158Z,4.90
2017-11-20T07:59:11.586Z,4.90
2017-11-20T08:01:39.010Z,4.90
2017-11-20T08:04:06.849Z,5.00
2017-11-20T08:06:34.279Z,5.00
2017-11-20T08:09:01.712Z,5.00
2017-11-20T08:11:29.138Z,5.00
2017-11-20T08:13:56.973Z,5.10
2017-11-20T08:16:24.399Z,5.10
2017-11-20T08:18:51.843Z,5.10
2017-11-20T08:21:20.345Z,5.10
2017-11-20T08:23:47.773Z,5.20
2017-11-20T08:26:15.219Z,5.20
2017-11-20T08:28:43.034Z,5.20
2017-11-20T08:31:10.517Z,5.20
2017-11-20T08:33:37.958Z,5.20
2017-11-20T08:36:05.490Z,5.20
2017-11-20T08:38:32.909Z,5.30
2017-11-20T08:41:00.345Z,5.30
2017-11-20T08:43:28.166Z,5.30
2017-11-20T08:45:55.621Z,5.30
2017-11-20T08:48:23.352Z,5.30
2017-11-20T08:50:50.823Z,5.30
2017-11-20T08:53:18.235Z,5.30
2017-11-20T08:55:46.056Z,5.40
2017-11-20T08:58:13.490Z,5.40
2017-11-20T09:00:40.914Z,5.40
2017-11-20T09:03:09.193Z,5.50
2017-11-20T09:05:36.618Z,5.50
2017-11-20T09:08:04.036Z,5.50
2017-11-20T09:10:31.470Z,5.50
2017-11-20T09:12:58.931Z,5.50
2017-11-20T09:15:26.341Z,5.50
2017-11-20T09:17:53.770Z,5.50
2017-11-20T09:20:21.237Z,5.60
2017-11-20T09:22:48.690Z,5.60
2017-11-20T09:25:16.114Z,5.60
2017-11-20T09:27:43.528Z,5.60
2017-11-20T09:30:11.360Z,5.60
2017-11-20T09:32:38.776Z,5.60
2017-11-20T09:35:06.200Z,5.60
2017-11-20T09:37:34.045Z,5.70
2017-11-20T09:40:01.473Z,5.70
2017-11-20T09:42:28.890Z,5.70
2017-11-20T09:44:56.580Z,5.80
2017-11-20T09:47:24.002Z,5.70
2017-11-20T09:49:51.819Z,5.70
2017-11-20T09:52:19.281Z,5.70
2017-11-20T09:54:46.710Z,5.70
2017-11-20T09:57:14.129Z,5.80
2017-11-20T09:59:41.593Z,5.70
2017-11-20T10:02:09.013Z,5.80
2017-11-20T10:04:36.433Z,5.80
2017-11-20T10:07:04.237Z,5.80
2017-11-20T10:09:31.641Z,5.90
2017-11-20T10:11:59.080Z,5.90
2017-11-20T10:14:26.510Z,5.80
2017-11-20T10:16:54.330Z,5.90
2017-11-20T10:19:21.753Z,5.90
2017-11-20T10:21:49.193Z,5.90
2017-11-20T10:24:16.645Z,5.90
2017-11-20T10:26:44.073Z,5.90
2017-11-20T10:29:11.516Z,5.80
2017-11-20T10:31:38.945Z,5.90
2017-11-20T10:34:06.374Z,5.90
2017-11-20T10:36:33.807Z,6.00
2017-11-20T10:39:01.621Z,6.00
2017-11-20T10:41:29.039Z,6.10
2017-11-20T10:43:56.842Z,6.00
2017-11-20T10:46:24.266Z,6.10
2017-11-20T10:48:51.690Z,6.10
2017-11-20T10:51:19.513Z,6.10
2017-11-20T10:53:46.935Z,6.10
2017-11-20T10:56:14.362Z,6.10
2017-11-20T10:58:42.370Z,6.10
2017-11-20T11:01:09.784Z,6.10
2017-11-20T11:03:37.738Z,6.10
2017-11-20T11:06:05.182Z,6.10
2017-11-20T11:08:32.608Z,6.20
2017-11-20T11:11:01.615Z,6.20
2017-11-20T11:13:30.041Z,6.20
2017-11-20T11:15:59.104Z,6.20
2017-11-20T11:18:26.508Z,6.20
2017-11-20T11:20:53.958Z,6.20
2017-11-20T11:23:21.378Z,6.20
2017-11-20T11:25:49.290Z,6.20
2017-11-20T11:28:16.714Z,6.20
2017-11-20T11:30:44.533Z,6.20
2017-11-20T11:33:13.464Z,6.20
2017-11-20T11:35:41.301Z,6.10
2017-11-20T11:38:08.731Z,6.10
2017-11-20T11:40:36.198Z,6.10
2017-11-20T11:43:03.638Z,6.20
2017-11-20T11:45:31.053Z,6.20
2017-11-20T11:47:59.774Z,6.20
2017-11-20T11:50:27.217Z,6.20
2017-11-20T11:52:54.640Z,6.20
2017-11-20T11:55:22.477Z,6.20
2017-11-20T11:57:50.502Z,6.20
2017-11-20T12:00:17.925Z,6.20
2017-11-20T12:02:45.749Z,6.20
2017-11-20T12:05:13.585Z,6.20
2017-11-20T12:07:41.013Z,6.30
2017-11-20T12:10:08.841Z,6.30
2017-11-20T12:12:36.269Z,6.30
2017-11-20T12:15:03.696Z,6.20
2017-11-20T12:17:31.141Z,6.20
2017-11-20T12:19:58.953Z,6.20
2017-11-20T12:22:26.396Z,6.20
2017-11-20T12:24:53.985Z,6.10
2017-11-20T12:27:21.708Z,6.10
2017-11-20T12:29:49.140Z,6.10
2017-11-20T12:32:16.565Z,6.10
2017-11-20T12:34:44.024Z,6.20
2017-11-20T12:37:11.449Z,6.20
2017-11-20T12:39:38.878Z,6.20
2017-11-20T12:42:06.319Z,6.10
2017-11-20T12:44:33.746Z,6.10
2017-11-20T12:47:01.193Z,6.10
2017-11-20T12:49:28.613Z,6.10
2017-11-20T12:51:56.069Z,6.10
2017-11-20T12:54:23.505Z,6.10
2017-11-20T12:56:50.962Z,6.10
2017-11-20T12:59:18.428Z,6.10
2017-11-20T13:01:45.851Z,6.10
2017-11-20T13:04:13.677Z,6.00
2017-11-20T13:06:42.825Z,6.00
2017-11-20T13:09:14.727Z,6.00
2017-11-20T13:11:42.506Z,6.00
2017-11-20T13:14:11.140Z,6.00
2017-11-20T13:16:38.667Z,6.00
2017-11-20T13:19:07.956Z,5.90
2017-11-20T13:21:35.412Z,5.90
2017-11-20T13:24:03.833Z,5.90
2017-11-20T13:26:31.301Z,5.90
2017-11-20T13:28:58.763Z,5.90
2017-11-20T13:31:26.238Z,6.00
2017-11-20T13:33:53.672Z,5.90
2017-11-20T13:36:21.113Z,5.90
2017-11-20T13:38:49.532Z,5.80
2017-11-20T13:41:18.625Z,5.90
2017-11-20T13:43:46.508Z,5.80
2017-11-20T13:46:14.670Z,5.90
2017-11-20T13:48:42.142Z,5.90
2017-11-20T13:51:09.986Z,5.80
2017-11-20T13:53:37.461Z,5.90
2017-11-20T13:56:05.302Z,5.90
2017-11-20T13:58:33.038Z,5.90
2017-11-20T14:01:00.485Z,5.80
2017-11-20T14:03:27.933Z,5.90
2017-11-20T14:05:55.549Z,5.90
2017-11-20T14:08:24.531Z,5.70
2017-11-20T14:10:52.439Z,5.70
2017-11-20T14:13:20.151Z,5.70
2017-11-20T14:15:47.578Z,5.70
2017-11-20T14:18:15.014Z,5.70
2017-11-20T14:20:43.482Z,5.70
2017-11-20T14:23:10.940Z,5.70
2017-11-20T14:25:38.361Z,5.70
2017-11-20T14:28:06.281Z,5.60
2017-11-20T14:30:33.724Z,5.60
2017-11-20T14:33:01.152Z,5.60
2017-11-20T14:35:28.618Z,5.60
2017-11-20T14:37:56.048Z,5.60
2017-11-20T14:40:23.870Z,5.60
2017-11-20T14:42:51.624Z,5.60
2017-11-20T14:45:19.044Z,5.60
2017-11-20T14:47:46.461Z,5.50
2017-11-20T14:50:13.895Z,5.50
2017-11-20T14:52:41.348Z,5.60
2017-11-20T14:55:08.799Z,5.60
2017-11-20T14:57:36.211Z,5.50
2017-11-20T15:00:04.208Z,5.50
2017-11-20T15:02:31.641Z,5.50
2017-11-20T15:04:59.052Z,5.50
2017-11-20T15:07:26.510Z,5.60
2017-11-20T15:09:53.934Z,5.70
2017-11-20T15:12:21.361Z,5.70
2017-11-20T15:14:48.820Z,5.70
2017-11-20T15:17:16.249Z,5.70
2017-11-20T15:19:44.070Z,5.70
2017-11-20T15:22:11.520Z,5.70
2017-11-20T15:24:39.377Z,5.70
2017-11-20T15:27:06.811Z,5.70
2017-11-20T15:29:34.319Z,5.70
2017-11-20T15:32:01.741Z,5.50
2017-11-20T15:34:30.915Z,5.50
2017-11-20T15:36:58.357Z,5.50
2017-11-20T15:39:27.009Z,5.40
2017-11-20T15:41:54.486Z,5.40
2017-11-20T15:44:22.329Z,5.30
2017-11-20T15:46:49.803Z,5.40
2017-11-20T15:49:17.655Z,5.30
2017-11-20T15:51:45.101Z,5.30
2017-11-20T15:54:12.566Z,5.30
2017-11-20T15:56:40.003Z,5.30
2017-11-20T15:59:07.453Z,5.20
2017-11-20T16:01:34.929Z,5.20
2017-11-20T16:04:02.358Z,5.30
2017-11-20T16:06:29.885Z,5.30
2017-11-20T16:08:57.609Z,5.20
2017-11-20T16:11:25.457Z,5.30
2017-11-20T16:13:52.894Z,5.30
2017-11-20T16:16:20.361Z,5.20
2017-11-20T16:18:48.669Z,5.20
2017-11-20T16:21:16.508Z,5.30
2017-11-20T16:23:43.936Z,5.30
2017-11-20T16:26:12.219Z,5.30
2017-11-20T16:28:39.670Z,5.30
2017-11-20T16:31:07.122Z,5.30
2017-11-20T16:33:34.810Z,5.30
2017-11-20T16:36:02.259Z,5.20
2017-11-20T16:38:29.760Z,5.20
2017-11-20T16:40:58.308Z,5.20
2017-11-20T16:43:25.789Z,5.20
2017-11-20T16:45:53.648Z,5.20
2017-11-20T16:48:21.489Z,5.20
2017-11-20T16:50:50.067Z,5.20
2017-11-20T16:53:17.533Z,5.30
2017-11-20T16:55:44.977Z,5.20
2017-11-20T16:58:24.940Z,5.20
2017-11-20T17:00:52.383Z,5.20
2017-11-20T17:03:31.603Z,5.20
2017-11-20T17:05:59.091Z,5.20
2017-11-20T17:08:26.534Z,5.20
2017-11-20T17:10:54.390Z,5.20
2017-11-20T17:13:21.834Z,5.20
2017-11-20T17:15:49.285Z,5.20
2017-11-20T17:18:16.737Z,5.20
2017-11-20T17:20:44.202Z,5.20
2017-11-20T17:23:11.658Z,5.20
2017-11-20T17:25:39.102Z,5.10
2017-11-20T17:28:06.569Z,5.10
2017-11-20T17:30:34.008Z,5.10
2017-11-20T17:33:01.466Z,5.10
2017-11-20T17:35:28.920Z,5.10
2017-11-20T17:37:56.367Z,5.10
2017-11-20T17:40:23.826Z,5.10
2017-11-20T17:42:51.301Z,5.10
2017-11-20T17:45:18.759Z,5.20
2017-11-20T17:47:46.202Z,5.10
2017-11-20T17:50:13.853Z,5.10
2017-11-20T17:52:41.271Z,5.10
2017-11-20T17:55:08.730Z,5.10
2017-11-20T17:57:36.310Z,5.00
2017-11-20T18:00:03.722Z,5.00
2017-11-20T18:02:31.561Z,5.00
2017-11-20T18:04:59.269Z,5.00
2017-11-20T18:07:26.715Z,5.00
2017-11-20T18:09:54.145Z,4.90
2017-11-20T18:12:21.603Z,4.90
2017-11-20T18:14:49.062Z,4.90
2017-11-20T18:17:16.914Z,4.90
2017-11-20T18:19:44.340Z,4.90
2017-11-20T18:22:11.830Z,4.80
2017-11-20T18:24:39.275Z,4.80
2017-11-20T18:27:06.713Z,4.80
2017-11-20T18:29:34.166Z,4.80
2017-11-20T18:32:01.610Z,4.80
2017-11-20T18:34:29.062Z,4.70
2017-11-20T18:36:56.516Z,4.70
2017-11-20T18:39:23.974Z,4.70
2017-11-20T18:41:51.441Z,4.70
2017-11-20T18:44:19.814Z,4.60
2017-11-20T18:46:47.274Z,4.70
2017-11-20T18:49:15.055Z,4.70
2017-11-20T18:51:42.505Z,4.70
2017-11-20T18:54:14.689Z,4.70
2017-11-20T18:56:42.544Z,4.80
2017-11-20T18:59:12.074Z,4.90
2017-11-20T19:01:51.390Z,4.90
2017-11-20T19:04:31.238Z,4.80
2017-11-20T19:07:10.642Z,4.80
2017-11-20T19:09:38.130Z,4.90
2017-11-20T19:12:06.177Z,5.00
2017-11-20T19:14:33.606Z,5.00
2017-11-20T19:17:01.057Z,4.90
2017-11-20T19:19:28.535Z,4.90
2017-11-20T19:21:55.963Z,4.90
2017-11-20T19:24:23.406Z,4.80
2017-11-20T19:26:50.886Z,4.90
2017-11-20T19:29:18.327Z,4.80
2017-11-20T19:31:45.786Z,4.80
2017-11-20T19:34:13.249Z,4.80
2017-11-20T19:36:40.690Z,4.90
2017-11-20T19:39:08.130Z,4.90
2017-11-20T19:41:35.574Z,4.80
2017-11-20T19:44:03.046Z,4.80
2017-11-20T19:46:30.507Z,4.80
2017-11-20T19:48:57.965Z,4.90
2017-11-20T19:51:25.401Z,4.80
2017-11-20T19:53:52.877Z,4.90
2017-11-20T19:56:20.585Z,5.00
2017-11-20T19:58:48.433Z,5.10
2017-11-20T20:01:15.865Z,5.10
2017-11-20T20:03:43.349Z,5.10
2017-11-20T20:06:10.806Z,5.00
2017-11-20T20:08:44.858Z,5.00
2017-11-20T20:11:12.300Z,4.90
2017-11-20T20:13:47.269Z,4.80
2017-11-20T20:16:20.422Z,4.80
2017-11-20T20:18:47.873Z,4.90
2017-11-20T20:21:15.730Z,4.70
2017-11-20T20:23:43.584Z,4.70
2017-11-20T20:26:11.023Z,4.70
2017-11-20T20:28:38.489Z,4.90
2017-11-20T20:31:05.950Z,4.80
2017-11-20T20:33:33.374Z,4.90
2017-11-20T20:36:01.098Z,4.70
2017-11-20T20:38:28.533Z,4.90
2017-11-20T20:40:55.979Z,4.70
2017-11-20T20:43:24.117Z,4.80
2017-11-20T20:45:51.576Z,4.80
2017-11-20T20:48:19.010Z,4.90
2017-11-20T20:50:46.547Z,4.90
2017-11-20T20:53:13.989Z,4.90
2017-11-20T20:55:41.491Z,5.00
2017-11-20T20:58:09.554Z,5.00
2017-11-20T21:00:36.998Z,4.90
2017-11-20T21:03:04.437Z,4.90
2017-11-20T21:05:33.826Z,4.90
2017-11-20T21:08:01.702Z,4.90
2017-11-20T21:10:34.730Z,4.90
2017-11-20T21:13:02.178Z,5.00
2017-11-20T21:15:29.626Z,5.00
2017-11-20T21:17:57.091Z,5.00
2017-11-20T21:20:24.540Z,5.00
2017-11-20T21:22:52.030Z,5.10
2017-11-20T21:25:19.877Z,5.00
2017-11-20T21:27:47.335Z,5.00
2017-11-20T21:30:14.750Z,5.10
2017-11-20T21:32:42.541Z,5.00
2017-11-20T21:35:09.983Z,5.10
2017-11-20T21:37:37.465Z,5.10
2017-11-20T21:40:04.950Z,5.10
2017-11-20T21:42:32.818Z,5.00
2017-11-20T21:45:00.259Z,5.00
2017-11-20T21:47:28.405Z,5.00
2017-11-20T21:49:55.938Z,5.00
2017-11-20T21:54:57.414Z,5.00
2017-11-20T21:57:24.857Z,5.00
2017-11-20T21:59:52.285Z,5.00
2017-11-20T22:02:19.722Z,5.10
2017-11-20T22:04:47.179Z,5.10
2017-11-20T22:07:15.036Z,5.00
2017-11-20T22:09:42.976Z,5.00
2017-11-20T22:12:10.406Z,5.00
2017-11-20T22:14:37.857Z,5.00
2017-11-20T22:17:05.309Z,5.00
2017-11-20T22:19:32.734Z,5.00
2017-11-20T22:22:00.181Z,4.90
2017-11-20T22:24:28.018Z,4.90
2017-11-20T22:26:55.571Z,4.90
2017-11-20T22:29:22.977Z,4.80
2017-11-20T22:31:50.401Z,4.80
2017-11-20T22:34:18.276Z,4.80
2017-11-20T22:36:45.736Z,4.80
2017-11-20T22:39:13.174Z,4.70
2017-11-20T22:41:41.008Z,4.70
2017-11-20T22:44:09.110Z,4.70
2017-11-20T22:46:36.530Z,4.70
2017-11-20T22:49:04.367Z,4.70
2017-11-20T22:51:31.789Z,4.70
2017-11-20T22:53:59.608Z,4.70
2017-11-20T22:56:27.043Z,4.70
2017-11-20T22:58:54.497Z,4.70
2017-11-20T23:01:21.929Z,4.60
2017-11-20T23:03:49.361Z,4.70
2017-11-20T23:06:17.193Z,4.70
2017-11-20T23:08:44.641Z,4.70
2017-11-20T23:11:12.249Z,4.70
2017-11-20T23:13:39.681Z,4.70
2017-11-20T23:16:07.113Z,4.80
2017-11-20T23:18:34.545Z,4.80
2017-11-20T23:21:02.110Z,4.80
2017-11-20T23:23:29.537Z,4.80
2017-11-20T23:25:56.966Z,4.80
2017-11-20T23:28:24.809Z,4.80
2017-11-20T23:30:52.304Z,4.80
2017-11-20T23:33:20.120Z,4.80
2017-11-20T23:35:47.561Z,4.80
2017-11-20T23:38:14.990Z,4.80
2017-11-20T23:40:42.439Z,4.80
2017-11-20T23:43:10.525Z,4.70
2017-11-20T23:45:37.953Z,4.70
2017-11-20T23:48:05.386Z,4.80
2017-11-20T23:50:32.858Z,4.80
2017-11-20T23:53:00.668Z,4.80
2017-11-20T23:55:28.111Z,4.80
2017-11-20T23:57:55.543Z,4.80
